createdAt,value
2018-03-27T00:00:42.677Z,1019.21
2018-03-27T00:02:09.427Z,1019.21
2018-03-27T00:03:36.162Z,1019.26
2018-03-27T00:05:03.431Z,1019.28
2018-03-27T00:06:30.387Z,1019.28
2018-03-27T00:07:57.414Z,1019.28
2018-03-27T00:09:24.714Z,1019.28
2018-03-27T00:10:51.606Z,1019.26
2018-03-27T00:12:18.832Z,1019.24
2018-03-27T00:13:46.000Z,1019.24
2018-03-27T00:15:12.855Z,1019.22
2018-03-27T00:16:40.168Z,1019.21
2018-03-27T00:18:07.445Z,1019.21
2018-03-27T00:19:34.774Z,1019.24
2018-03-27T00:21:01.586Z,1019.25
2018-03-27T00:22:28.540Z,1019.24
2018-03-27T00:23:55.277Z,1019.23
2018-03-27T00:25:22.627Z,1019.23
2018-03-27T00:26:49.392Z,1019.25
2018-03-27T00:28:16.670Z,1019.26
2018-03-27T00:29:43.835Z,1019.25
2018-03-27T00:31:11.044Z,1019.24
2018-03-27T00:32:38.302Z,1019.27
2018-03-27T00:34:05.236Z,1019.28
2018-03-27T00:35:32.031Z,1019.29
2018-03-27T00:36:59.209Z,1019.29
2018-03-27T00:38:26.311Z,1019.30
2018-03-27T00:39:53.307Z,1019.31
2018-03-27T00:41:20.531Z,1019.29
2018-03-27T00:42:47.344Z,1019.30
2018-03-27T00:44:14.443Z,1019.30
2018-03-27T00:45:41.155Z,1019.30
2018-03-27T00:47:08.164Z,1019.31
2018-03-27T00:48:35.423Z,1019.36
2018-03-27T00:50:02.653Z,1019.35
2018-03-27T00:51:29.832Z,1019.39
2018-03-27T00:52:57.086Z,1019.38
2018-03-27T00:54:24.228Z,1019.39
2018-03-27T00:55:51.411Z,1019.39
2018-03-27T00:57:18.344Z,1019.39
2018-03-27T00:58:45.556Z,1019.42
2018-03-27T01:00:12.714Z,1019.42
2018-03-27T01:01:39.865Z,1019.41
2018-03-27T01:03:07.172Z,1019.41
2018-03-27T01:04:34.094Z,1019.42
2018-03-27T01:06:00.983Z,1019.42
2018-03-27T01:07:28.170Z,1019.41
2018-03-27T01:08:55.532Z,1019.41
2018-03-27T01:10:22.984Z,1019.39
2018-03-27T01:11:50.134Z,1019.40
2018-03-27T01:13:17.291Z,1019.38
2018-03-27T01:14:44.622Z,1019.37
2018-03-27T01:16:11.394Z,1019.36
2018-03-27T01:17:38.133Z,1019.36
2018-03-27T01:19:05.136Z,1019.32
2018-03-27T01:20:32.145Z,1019.31
2018-03-27T01:21:58.932Z,1019.33
2018-03-27T01:23:25.748Z,1019.32
2018-03-27T01:24:52.544Z,1019.30
2018-03-27T01:26:19.386Z,1019.32
2018-03-27T01:27:46.179Z,1019.30
2018-03-27T01:29:13.219Z,1019.32
2018-03-27T01:30:39.950Z,1019.32
2018-03-27T01:32:07.126Z,1019.30
2018-03-27T01:33:34.128Z,1019.29
2018-03-27T01:35:01.358Z,1019.29
2018-03-27T01:36:28.613Z,1019.28
2018-03-27T01:37:55.885Z,1019.25
2018-03-27T01:39:22.971Z,1019.23
2018-03-27T01:40:50.172Z,1019.23
2018-03-27T01:42:17.343Z,1019.22
2018-03-27T01:43:44.435Z,1019.22
2018-03-27T01:45:11.709Z,1019.23
2018-03-27T01:46:38.579Z,1019.20
2018-03-27T01:48:05.890Z,1019.20
2018-03-27T01:49:33.073Z,1019.22
2018-03-27T01:50:59.952Z,1019.24
2018-03-27T01:52:27.148Z,1019.22
2018-03-27T01:53:54.271Z,1019.19
2018-03-27T01:55:21.143Z,1019.18
2018-03-27T01:56:48.451Z,1019.18
2018-03-27T01:58:15.670Z,1019.20
2018-03-27T01:59:42.965Z,1019.22
2018-03-27T02:01:10.024Z,1019.20
2018-03-27T02:02:37.058Z,1019.18
2018-03-27T02:04:04.301Z,1019.17
2018-03-27T02:05:31.502Z,1019.18
2018-03-27T02:06:58.827Z,1019.18
2018-03-27T02:08:25.836Z,1019.20
2018-03-27T02:09:52.814Z,1019.19
2018-03-27T02:11:19.902Z,1019.18
2018-03-27T02:12:47.019Z,1019.18
2018-03-27T02:14:14.072Z,1019.17
2018-03-27T02:15:41.075Z,1019.16
2018-03-27T02:17:08.200Z,1019.16
2018-03-27T02:18:35.261Z,1019.15
2018-03-27T02:20:02.336Z,1019.18
2018-03-27T02:21:29.537Z,1019.18
2018-03-27T02:22:56.563Z,1019.18
2018-03-27T02:24:23.833Z,1019.18
2018-03-27T02:25:51.068Z,1019.14
2018-03-27T02:27:18.368Z,1019.15
2018-03-27T02:28:45.437Z,1019.13
2018-03-27T02:30:12.629Z,1019.11
2018-03-27T02:31:39.746Z,1019.12
2018-03-27T02:33:06.730Z,1019.10
2018-03-27T02:34:33.632Z,1019.11
2018-03-27T02:36:00.816Z,1019.08
2018-03-27T02:37:28.046Z,1019.07
2018-03-27T02:38:55.256Z,1019.07
2018-03-27T02:40:22.170Z,1019.05
2018-03-27T02:41:49.365Z,1019.05
2018-03-27T02:43:16.521Z,1019.05
2018-03-27T02:44:43.676Z,1019.04
2018-03-27T02:46:10.776Z,1019.00
2018-03-27T02:47:37.953Z,1018.98
2018-03-27T02:49:05.136Z,1018.97
2018-03-27T02:50:32.047Z,1018.97
2018-03-27T02:51:59.358Z,1018.97
2018-03-27T02:53:26.570Z,1018.96
2018-03-27T02:54:53.608Z,1018.99
2018-03-27T02:56:21.004Z,1018.99
2018-03-27T02:57:48.237Z,1018.99
2018-03-27T02:59:15.302Z,1018.98
2018-03-27T03:00:42.582Z,1018.98
2018-03-27T03:02:09.612Z,1018.97
2018-03-27T03:03:36.963Z,1018.98
2018-03-27T03:05:04.213Z,1018.97
2018-03-27T03:06:31.339Z,1018.97
2018-03-27T03:07:58.573Z,1018.95
2018-03-27T03:09:25.978Z,1018.94
2018-03-27T03:10:53.216Z,1018.94
2018-03-27T03:12:19.919Z,1018.96
2018-03-27T03:13:46.943Z,1018.95
2018-03-27T03:15:14.060Z,1018.97
2018-03-27T03:16:41.362Z,1018.97
2018-03-27T03:18:08.521Z,1018.97
2018-03-27T03:19:35.797Z,1018.97
2018-03-27T03:21:02.949Z,1018.98
2018-03-27T03:22:30.227Z,1018.95
2018-03-27T03:23:57.200Z,1018.93
2018-03-27T03:25:24.161Z,1018.95
2018-03-27T03:26:51.405Z,1018.92
2018-03-27T03:28:18.676Z,1018.90
2018-03-27T03:29:45.763Z,1018.90
2018-03-27T03:31:12.854Z,1018.88
2018-03-27T03:32:39.924Z,1018.89
2018-03-27T03:34:06.814Z,1018.91
2018-03-27T03:35:34.095Z,1018.91
2018-03-27T03:37:01.308Z,1018.92
2018-03-27T03:38:28.593Z,1018.95
2018-03-27T03:39:55.815Z,1018.95
2018-03-27T03:41:23.019Z,1018.95
2018-03-27T03:42:50.343Z,1018.97
2018-03-27T03:44:17.580Z,1018.99
2018-03-27T03:45:44.810Z,1018.99
2018-03-27T03:47:11.955Z,1018.99
2018-03-27T03:48:39.288Z,1018.99
2018-03-27T03:50:06.505Z,1018.99
2018-03-27T03:51:33.491Z,1019.01
2018-03-27T03:53:00.782Z,1019.01
2018-03-27T03:54:27.891Z,1019.03
2018-03-27T03:55:55.208Z,1019.02
2018-03-27T03:57:22.431Z,1019.03
2018-03-27T03:58:49.473Z,1019.02
2018-03-27T04:00:16.559Z,1019.04
2018-03-27T04:01:43.759Z,1019.04
2018-03-27T04:03:10.804Z,1019.05
2018-03-27T04:04:37.868Z,1019.06
2018-03-27T04:06:04.345Z,1019.06
2018-03-27T04:07:31.424Z,1019.08
2018-03-27T04:08:58.640Z,1019.10
2018-03-27T04:10:26.021Z,1019.10
2018-03-27T04:11:53.177Z,1019.10
2018-03-27T04:13:20.485Z,1019.10
2018-03-27T04:14:47.454Z,1019.09
2018-03-27T04:16:14.286Z,1019.09
2018-03-27T04:17:41.537Z,1019.09
2018-03-27T04:19:08.637Z,1019.06
2018-03-27T04:20:35.990Z,1019.06
2018-03-27T04:22:03.118Z,1019.05
2018-03-27T04:23:30.255Z,1019.06
2018-03-27T04:24:57.662Z,1019.07
2018-03-27T04:26:24.785Z,1019.07
2018-03-27T04:27:52.002Z,1019.09
2018-03-27T04:29:19.128Z,1019.10
2018-03-27T04:30:46.208Z,1019.11
2018-03-27T04:32:13.457Z,1019.10
2018-03-27T04:33:40.667Z,1019.10
2018-03-27T04:35:07.865Z,1019.08
2018-03-27T04:36:35.044Z,1019.09
2018-03-27T04:38:02.352Z,1019.08
2018-03-27T04:39:29.504Z,1019.06
2018-03-27T04:40:56.677Z,1019.07
2018-03-27T04:42:23.644Z,1019.07
2018-03-27T04:43:50.855Z,1019.05
2018-03-27T04:45:18.117Z,1019.04
2018-03-27T04:46:45.257Z,1019.03
2018-03-27T04:48:12.424Z,1019.03
2018-03-27T04:49:39.608Z,1019.03
2018-03-27T04:51:06.766Z,1019.05
2018-03-27T04:52:33.768Z,1019.06
2018-03-27T04:54:01.028Z,1019.08
2018-03-27T04:55:28.283Z,1019.08
2018-03-27T04:56:55.417Z,1019.09
2018-03-27T04:58:22.775Z,1019.10
2018-03-27T04:59:49.916Z,1019.14
2018-03-27T05:01:17.203Z,1019.13
2018-03-27T05:02:44.302Z,1019.15
2018-03-27T05:04:11.355Z,1019.14
2018-03-27T05:05:38.475Z,1019.17
2018-03-27T05:07:05.641Z,1019.20
2018-03-27T05:08:32.849Z,1019.21
2018-03-27T05:10:00.061Z,1019.21
2018-03-27T05:11:27.429Z,1019.20
2018-03-27T05:12:54.604Z,1019.19
2018-03-27T05:14:21.620Z,1019.19
2018-03-27T05:15:48.958Z,1019.18
2018-03-27T05:17:15.982Z,1019.18
2018-03-27T05:18:43.109Z,1019.19
2018-03-27T05:20:10.162Z,1019.20
2018-03-27T05:21:37.476Z,1019.19
2018-03-27T05:23:04.669Z,1019.18
2018-03-27T05:24:31.727Z,1019.18
2018-03-27T05:25:58.852Z,1019.18
2018-03-27T05:27:26.257Z,1019.18
2018-03-27T05:28:53.192Z,1019.19
2018-03-27T05:30:20.477Z,1019.17
2018-03-27T05:31:47.721Z,1019.18
2018-03-27T05:33:14.740Z,1019.19
2018-03-27T05:34:42.012Z,1019.20
2018-03-27T05:36:09.435Z,1019.18
2018-03-27T05:37:36.652Z,1019.18
2018-03-27T05:39:03.648Z,1019.17
2018-03-27T05:40:30.820Z,1019.17
2018-03-27T05:41:58.120Z,1019.16
2018-03-27T05:43:25.376Z,1019.16
2018-03-27T05:44:52.690Z,1019.13
2018-03-27T05:46:19.765Z,1019.14
2018-03-27T05:47:46.938Z,1019.14
2018-03-27T05:49:14.183Z,1019.13
2018-03-27T05:50:41.358Z,1019.13
2018-03-27T05:52:08.283Z,1019.13
2018-03-27T05:53:35.468Z,1019.15
2018-03-27T05:55:02.723Z,1019.15
2018-03-27T05:56:29.670Z,1019.17
2018-03-27T05:57:56.964Z,1019.18
2018-03-27T05:59:24.013Z,1019.20
2018-03-27T06:00:51.322Z,1019.18
2018-03-27T06:02:18.695Z,1019.18
2018-03-27T06:03:45.883Z,1019.15
2018-03-27T06:05:12.958Z,1019.16
2018-03-27T06:06:40.328Z,1019.15
2018-03-27T06:08:07.619Z,1019.18
2018-03-27T06:09:34.924Z,1019.21
2018-03-27T06:11:02.117Z,1019.20
2018-03-27T06:12:29.190Z,1019.22
2018-03-27T06:13:56.196Z,1019.22
2018-03-27T06:15:23.288Z,1019.22
2018-03-27T06:16:50.423Z,1019.21
2018-03-27T06:18:17.615Z,1019.19
2018-03-27T06:19:44.856Z,1019.20
2018-03-27T06:21:11.826Z,1019.17
2018-03-27T06:22:39.221Z,1019.15
2018-03-27T06:24:06.508Z,1019.17
2018-03-27T06:25:33.809Z,1019.20
2018-03-27T06:27:00.976Z,1019.19
2018-03-27T06:28:28.138Z,1019.19
2018-03-27T06:29:55.479Z,1019.22
2018-03-27T06:31:22.600Z,1019.21
2018-03-27T06:32:49.876Z,1019.22
2018-03-27T06:34:17.084Z,1019.21
2018-03-27T06:35:44.236Z,1019.21
2018-03-27T06:37:11.352Z,1019.20
2018-03-27T06:38:38.497Z,1019.18
2018-03-27T06:40:06.000Z,1019.14
2018-03-27T06:41:33.340Z,1019.17
2018-03-27T06:43:00.472Z,1019.17
2018-03-27T06:44:27.725Z,1019.17
2018-03-27T06:45:54.869Z,1019.15
2018-03-27T06:47:22.101Z,1019.15
2018-03-27T06:48:49.335Z,1019.15
2018-03-27T06:50:16.605Z,1019.15
2018-03-27T06:51:43.912Z,1019.16
2018-03-27T06:53:10.987Z,1019.17
2018-03-27T06:54:38.204Z,1019.16
2018-03-27T06:56:05.575Z,1019.16
2018-03-27T06:57:32.937Z,1019.15
2018-03-27T06:59:00.287Z,1019.12
2018-03-27T07:00:27.356Z,1019.13
2018-03-27T07:01:54.607Z,1019.11
2018-03-27T07:03:21.892Z,1019.11
2018-03-27T07:04:49.032Z,1019.11
2018-03-27T07:06:16.234Z,1019.09
2018-03-27T07:07:43.314Z,1019.08
2018-03-27T07:09:10.392Z,1019.08
2018-03-27T07:10:37.654Z,1019.11
2018-03-27T07:12:04.932Z,1019.09
2018-03-27T07:13:32.216Z,1019.10
2018-03-27T07:14:59.196Z,1019.09
2018-03-27T07:16:26.634Z,1019.09
2018-03-27T07:17:53.631Z,1019.11
2018-03-27T07:19:20.815Z,1019.13
2018-03-27T07:20:48.034Z,1019.14
2018-03-27T07:22:15.137Z,1019.15
2018-03-27T07:23:42.319Z,1019.20
2018-03-27T07:25:09.597Z,1019.22
2018-03-27T07:26:36.803Z,1019.22
2018-03-27T07:28:04.204Z,1019.21
2018-03-27T07:29:30.611Z,1019.20
2018-03-27T07:30:57.810Z,1019.21
2018-03-27T07:32:24.950Z,1019.22
2018-03-27T07:33:52.206Z,1019.22
2018-03-27T07:35:19.208Z,1019.21
2018-03-27T07:36:46.425Z,1019.21
2018-03-27T07:38:13.674Z,1019.22
2018-03-27T07:39:40.733Z,1019.20
2018-03-27T07:41:07.558Z,1019.18
2018-03-27T07:42:34.804Z,1019.21
2018-03-27T07:44:02.036Z,1019.21
2018-03-27T07:45:29.262Z,1019.21
2018-03-27T07:46:56.378Z,1019.21
2018-03-27T07:48:23.325Z,1019.19
2018-03-27T07:49:50.476Z,1019.18
2018-03-27T07:51:17.709Z,1019.20
2018-03-27T07:52:45.021Z,1019.20
2018-03-27T07:54:12.079Z,1019.21
2018-03-27T07:55:39.453Z,1019.22
2018-03-27T07:57:06.568Z,1019.21
2018-03-27T07:58:33.664Z,1019.23
2018-03-27T08:00:00.918Z,1019.19
2018-03-27T08:01:28.279Z,1019.21
2018-03-27T08:02:55.550Z,1019.19
2018-03-27T08:04:22.651Z,1019.18
2018-03-27T08:05:49.595Z,1019.18
2018-03-27T08:07:16.819Z,1019.21
2018-03-27T08:08:43.959Z,1019.21
2018-03-27T08:10:10.760Z,1019.20
2018-03-27T08:11:38.058Z,1019.20
2018-03-27T08:13:05.228Z,1019.21
2018-03-27T08:14:32.608Z,1019.22
2018-03-27T08:15:59.894Z,1019.19
2018-03-27T08:17:27.212Z,1019.19
2018-03-27T08:18:54.724Z,1019.19
2018-03-27T08:20:21.678Z,1019.20
2018-03-27T08:21:48.977Z,1019.20
2018-03-27T08:23:16.020Z,1019.18
2018-03-27T08:24:43.314Z,1019.20
2018-03-27T08:26:10.305Z,1019.20
2018-03-27T08:27:37.391Z,1019.22
2018-03-27T08:29:04.625Z,1019.22
2018-03-27T08:30:31.927Z,1019.23
2018-03-27T08:31:58.942Z,1019.21
2018-03-27T08:33:26.282Z,1019.21
2018-03-27T08:34:53.444Z,1019.21
2018-03-27T08:36:20.681Z,1019.19
2018-03-27T08:37:47.796Z,1019.19
2018-03-27T08:39:14.917Z,1019.19
2018-03-27T08:40:41.885Z,1019.18
2018-03-27T08:42:09.158Z,1019.17
2018-03-27T08:43:36.346Z,1019.16
2018-03-27T08:45:03.418Z,1019.14
2018-03-27T08:46:30.803Z,1019.14
2018-03-27T08:47:58.004Z,1019.15
2018-03-27T08:49:25.305Z,1019.12
2018-03-27T08:50:52.239Z,1019.12
2018-03-27T08:52:19.245Z,1019.10
2018-03-27T08:53:46.449Z,1019.09
2018-03-27T08:55:13.618Z,1019.09
2018-03-27T08:56:40.676Z,1019.10
2018-03-27T08:58:07.665Z,1019.05
2018-03-27T08:59:34.739Z,1019.07
2018-03-27T09:01:01.625Z,1019.05
2018-03-27T09:02:29.036Z,1019.04
2018-03-27T09:03:56.231Z,1019.05
2018-03-27T09:05:23.581Z,1019.05
2018-03-27T09:06:50.445Z,1019.03
2018-03-27T09:08:17.439Z,1019.01
2018-03-27T09:09:44.533Z,1018.99
2018-03-27T09:11:11.501Z,1018.98
2018-03-27T09:12:38.745Z,1018.97
2018-03-27T09:14:05.834Z,1018.97
2018-03-27T09:15:32.927Z,1018.95
2018-03-27T09:16:59.958Z,1018.93
2018-03-27T09:18:27.244Z,1018.92
2018-03-27T09:19:54.506Z,1018.93
2018-03-27T09:21:21.775Z,1018.93
2018-03-27T09:22:49.056Z,1018.94
2018-03-27T09:24:16.299Z,1018.94
2018-03-27T09:25:43.501Z,1018.90
2018-03-27T09:27:10.668Z,1018.92
2018-03-27T09:28:37.836Z,1018.91
2018-03-27T09:30:05.042Z,1018.93
2018-03-27T09:31:35.395Z,1018.94
2018-03-27T09:32:59.583Z,1018.95
2018-03-27T09:34:26.909Z,1018.95
2018-03-27T09:35:54.174Z,1018.94
2018-03-27T09:37:21.439Z,1018.93
2018-03-27T09:38:48.772Z,1018.93
2018-03-27T09:40:15.893Z,1018.92
2018-03-27T09:41:42.925Z,1018.95
2018-03-27T09:43:10.178Z,1018.90
2018-03-27T09:44:37.452Z,1018.90
2018-03-27T09:46:04.843Z,1018.88
2018-03-27T09:47:32.211Z,1018.86
2018-03-27T09:48:59.537Z,1018.89
2018-03-27T09:50:26.876Z,1018.86
2018-03-27T09:51:54.160Z,1018.87
2018-03-27T09:53:21.470Z,1018.84
2018-03-27T09:54:48.642Z,1018.86
2018-03-27T09:56:15.739Z,1018.87
2018-03-27T09:57:42.924Z,1018.88
2018-03-27T09:59:10.286Z,1018.90
2018-03-27T10:00:37.508Z,1018.90
2018-03-27T10:02:04.747Z,1018.88
2018-03-27T10:03:31.946Z,1018.88
2018-03-27T10:04:59.098Z,1018.88
2018-03-27T10:06:26.575Z,1018.85
2018-03-27T10:07:53.820Z,1018.83
2018-03-27T10:09:20.832Z,1018.80
2018-03-27T10:10:47.951Z,1018.80
2018-03-27T10:12:15.209Z,1018.80
2018-03-27T10:13:42.494Z,1018.82
2018-03-27T10:15:09.912Z,1018.79
2018-03-27T10:16:37.065Z,1018.78
2018-03-27T10:18:04.353Z,1018.79
2018-03-27T10:19:31.637Z,1018.79
2018-03-27T10:20:58.974Z,1018.82
2018-03-27T10:22:26.196Z,1018.83
2018-03-27T10:23:53.350Z,1018.85
2018-03-27T10:25:20.595Z,1018.84
2018-03-27T10:26:47.579Z,1018.85
2018-03-27T10:28:14.769Z,1018.83
2018-03-27T10:29:42.051Z,1018.80
2018-03-27T10:31:09.403Z,1018.79
2018-03-27T10:32:36.787Z,1018.75
2018-03-27T10:34:04.137Z,1018.71
2018-03-27T10:35:31.490Z,1018.70
2018-03-27T10:36:58.855Z,1018.68
2018-03-27T10:38:26.215Z,1018.65
2018-03-27T10:39:53.472Z,1018.62
2018-03-27T10:41:20.491Z,1018.58
2018-03-27T10:42:47.529Z,1018.58
2018-03-27T10:44:14.891Z,1018.58
2018-03-27T10:45:41.977Z,1018.53
2018-03-27T10:47:09.275Z,1018.51
2018-03-27T10:48:36.507Z,1018.53
2018-03-27T10:50:03.731Z,1018.53
2018-03-27T10:51:30.922Z,1018.49
2018-03-27T10:52:58.202Z,1018.51
2018-03-27T10:54:25.571Z,1018.51
2018-03-27T10:55:52.756Z,1018.51
2018-03-27T10:57:20.084Z,1018.50
2018-03-27T10:58:47.423Z,1018.42
2018-03-27T11:00:14.591Z,1018.36
2018-03-27T11:01:41.762Z,1018.34
2018-03-27T11:03:08.945Z,1018.32
2018-03-27T11:04:36.151Z,1018.29
2018-03-27T11:06:03.382Z,1018.30
2018-03-27T11:07:30.698Z,1018.29
2018-03-27T11:08:58.077Z,1018.30
2018-03-27T11:10:25.396Z,1018.30
2018-03-27T11:11:52.629Z,1018.27
2018-03-27T11:13:19.854Z,1018.26
2018-03-27T11:14:47.102Z,1018.24
2018-03-27T11:16:14.376Z,1018.19
2018-03-27T11:17:41.731Z,1018.18
2018-03-27T11:19:09.129Z,1018.14
2018-03-27T11:20:36.253Z,1018.12
2018-03-27T11:22:03.479Z,1018.07
2018-03-27T11:23:30.704Z,1018.04
2018-03-27T11:24:58.063Z,1018.03
2018-03-27T11:26:25.268Z,1018.03
2018-03-27T11:27:52.528Z,1018.02
2018-03-27T11:29:27.971Z,1018.01
2018-03-27T11:30:47.077Z,1018.00
2018-03-27T11:32:14.398Z,1017.98
2018-03-27T11:33:41.568Z,1017.95
2018-03-27T11:35:08.904Z,1017.92
2018-03-27T11:36:36.182Z,1017.91
2018-03-27T11:38:03.509Z,1017.86
2018-03-27T11:39:30.841Z,1017.91
2018-03-27T11:40:58.243Z,1017.87
2018-03-27T11:42:25.248Z,1017.85
2018-03-27T11:43:52.651Z,1017.84
2018-03-27T11:45:19.775Z,1017.84
2018-03-27T11:46:47.188Z,1017.82
2018-03-27T11:48:14.340Z,1017.76
2018-03-27T11:49:41.469Z,1017.76
2018-03-27T11:51:08.911Z,1017.74
2018-03-27T11:52:36.123Z,1017.67
2018-03-27T11:54:03.449Z,1017.62
2018-03-27T11:55:30.874Z,1017.59
2018-03-27T11:56:58.230Z,1017.60
2018-03-27T11:58:25.500Z,1017.57
2018-03-27T11:59:52.805Z,1017.59
2018-03-27T12:01:20.199Z,1017.60
2018-03-27T12:02:47.528Z,1017.59
2018-03-27T12:04:14.617Z,1017.56
2018-03-27T12:05:41.964Z,1017.50
2018-03-27T12:07:09.372Z,1017.47
2018-03-27T12:08:36.693Z,1017.47
2018-03-27T12:10:04.056Z,1017.41
2018-03-27T12:11:31.417Z,1017.39
2018-03-27T12:12:58.838Z,1017.42
2018-03-27T12:14:26.292Z,1017.39
2018-03-27T12:15:53.341Z,1017.33
2018-03-27T12:17:20.811Z,1017.32
2018-03-27T12:18:48.227Z,1017.28
2018-03-27T12:20:15.335Z,1017.26
2018-03-27T12:21:42.596Z,1017.18
2018-03-27T12:23:09.995Z,1017.14
2018-03-27T12:24:37.331Z,1017.14
2018-03-27T12:26:04.787Z,1017.20
2018-03-27T12:27:32.190Z,1017.19
2018-03-27T12:28:59.472Z,1017.19
2018-03-27T12:30:26.759Z,1017.18
2018-03-27T12:31:54.057Z,1017.20
2018-03-27T12:33:21.290Z,1017.19
2018-03-27T12:34:48.487Z,1017.19
2018-03-27T12:36:15.756Z,1017.19
2018-03-27T12:37:42.977Z,1017.15
2018-03-27T12:39:10.204Z,1017.15
2018-03-27T12:40:37.579Z,1017.12
2018-03-27T12:42:04.743Z,1017.09
2018-03-27T12:43:32.099Z,1017.09
2018-03-27T12:44:59.332Z,1017.05
2018-03-27T12:46:26.720Z,1016.99
2018-03-27T12:47:54.062Z,1016.98
2018-03-27T12:49:21.401Z,1016.91
2018-03-27T12:50:48.893Z,1016.89
2018-03-27T12:52:16.231Z,1016.89
2018-03-27T12:53:43.296Z,1016.90
2018-03-27T12:55:10.511Z,1016.89
2018-03-27T12:56:37.880Z,1016.89
2018-03-27T12:58:05.240Z,1016.88
2018-03-27T12:59:32.621Z,1016.85
2018-03-27T13:00:59.839Z,1016.83
2018-03-27T13:02:27.099Z,1016.80
2018-03-27T13:03:54.397Z,1016.76
2018-03-27T13:05:21.637Z,1016.74
2018-03-27T13:06:48.992Z,1016.77
2018-03-27T13:08:16.262Z,1016.80
2018-03-27T13:09:43.512Z,1016.78
2018-03-27T13:11:10.781Z,1016.78
2018-03-27T13:12:38.079Z,1016.76
2018-03-27T13:14:05.481Z,1016.77
2018-03-27T13:15:32.632Z,1016.77
2018-03-27T13:16:59.931Z,1016.78
2018-03-27T13:18:27.261Z,1016.77
2018-03-27T13:19:54.553Z,1016.74
2018-03-27T13:21:21.898Z,1016.76
2018-03-27T13:22:49.282Z,1016.73
2018-03-27T13:24:16.396Z,1016.70
2018-03-27T13:25:43.662Z,1016.68
2018-03-27T13:27:10.746Z,1016.65
2018-03-27T13:28:38.102Z,1016.66
2018-03-27T13:30:05.666Z,1016.65
2018-03-27T13:31:32.879Z,1016.66
2018-03-27T13:33:00.153Z,1016.64
2018-03-27T13:34:27.543Z,1016.63
2018-03-27T13:35:54.829Z,1016.66
2018-03-27T13:37:22.013Z,1016.65
2018-03-27T13:38:49.399Z,1016.63
2018-03-27T13:40:16.629Z,1016.66
2018-03-27T13:41:43.798Z,1016.63
2018-03-27T13:43:11.071Z,1016.64
2018-03-27T13:44:38.474Z,1016.63
2018-03-27T13:46:05.607Z,1016.60
2018-03-27T13:47:32.697Z,1016.64
2018-03-27T13:49:00.229Z,1016.59
2018-03-27T13:50:27.469Z,1016.60
2018-03-27T13:51:54.782Z,1016.62
2018-03-27T13:53:22.000Z,1016.62
2018-03-27T13:54:49.244Z,1016.63
2018-03-27T13:56:16.631Z,1016.62
2018-03-27T13:57:43.889Z,1016.63
2018-03-27T13:59:11.113Z,1016.63
2018-03-27T14:00:38.433Z,1016.60
2018-03-27T14:02:05.750Z,1016.57
2018-03-27T14:03:33.098Z,1016.58
2018-03-27T14:05:00.264Z,1016.58
2018-03-27T14:06:27.642Z,1016.54
2018-03-27T14:07:54.906Z,1016.54
2018-03-27T14:09:22.337Z,1016.54
2018-03-27T14:10:49.653Z,1016.49
2018-03-27T14:12:17.043Z,1016.50
2018-03-27T14:13:44.364Z,1016.49
2018-03-27T14:15:11.636Z,1016.48
2018-03-27T14:16:38.900Z,1016.45
2018-03-27T14:18:05.998Z,1016.45
2018-03-27T14:19:33.444Z,1016.44
2018-03-27T14:21:00.739Z,1016.44
2018-03-27T14:22:27.974Z,1016.43
2018-03-27T14:23:55.331Z,1016.43
2018-03-27T14:25:22.743Z,1016.44
2018-03-27T14:26:49.929Z,1016.43
2018-03-27T14:28:17.286Z,1016.42
2018-03-27T14:29:44.341Z,1016.39
2018-03-27T14:31:11.511Z,1016.39
2018-03-27T14:32:38.784Z,1016.39
2018-03-27T14:34:06.296Z,1016.37
2018-03-27T14:35:33.593Z,1016.37
2018-03-27T14:37:00.871Z,1016.34
2018-03-27T14:38:28.120Z,1016.32
2018-03-27T14:39:55.282Z,1016.29
2018-03-27T14:41:22.796Z,1016.28
2018-03-27T14:42:49.939Z,1016.27
2018-03-27T14:44:17.252Z,1016.25
2018-03-27T14:45:44.453Z,1016.25
2018-03-27T14:47:11.761Z,1016.27
2018-03-27T14:48:39.215Z,1016.28
2018-03-27T14:50:06.146Z,1016.27
2018-03-27T14:51:33.060Z,1016.24
2018-03-27T14:53:00.437Z,1016.23
2018-03-27T14:54:27.807Z,1016.20
2018-03-27T14:55:55.020Z,1016.20
2018-03-27T14:57:22.121Z,1016.16
2018-03-27T14:58:49.223Z,1016.15
2018-03-27T15:00:16.485Z,1016.12
2018-03-27T15:01:43.726Z,1016.11
2018-03-27T15:03:10.869Z,1016.10
2018-03-27T15:04:38.121Z,1016.08
2018-03-27T15:06:05.186Z,1016.07
2018-03-27T15:07:32.401Z,1016.06
2018-03-27T15:08:59.814Z,1016.04
2018-03-27T15:10:27.145Z,1016.01
2018-03-27T15:11:54.336Z,1016.01
2018-03-27T15:13:21.741Z,1015.99
2018-03-27T15:14:49.038Z,1015.95
2018-03-27T15:16:16.487Z,1015.94
2018-03-27T15:17:43.641Z,1015.94
2018-03-27T15:19:10.915Z,1015.94
2018-03-27T15:20:38.331Z,1015.95
2018-03-27T15:22:05.600Z,1015.92
2018-03-27T15:23:32.993Z,1015.90
2018-03-27T15:25:00.330Z,1015.86
2018-03-27T15:26:27.616Z,1015.85
2018-03-27T15:27:54.897Z,1015.86
2018-03-27T15:29:22.244Z,1015.84
2018-03-27T15:30:49.674Z,1015.83
2018-03-27T15:32:16.854Z,1015.83
2018-03-27T15:33:44.211Z,1015.81
2018-03-27T15:35:11.585Z,1015.81
2018-03-27T15:36:38.772Z,1015.81
2018-03-27T15:38:06.274Z,1015.78
2018-03-27T15:39:33.580Z,1015.79
2018-03-27T15:41:00.825Z,1015.79
2018-03-27T15:42:28.246Z,1015.80
2018-03-27T15:43:55.543Z,1015.80
2018-03-27T15:45:22.872Z,1015.80
2018-03-27T15:46:50.127Z,1015.82
2018-03-27T15:48:17.580Z,1015.82
2018-03-27T15:49:44.739Z,1015.79
2018-03-27T15:51:11.776Z,1015.82
2018-03-27T15:52:38.938Z,1015.81
2018-03-27T15:54:06.262Z,1015.80
2018-03-27T15:55:33.625Z,1015.80
2018-03-27T15:57:00.997Z,1015.79
2018-03-27T15:58:28.368Z,1015.79
2018-03-27T15:59:55.739Z,1015.80
2018-03-27T16:01:22.906Z,1015.79
2018-03-27T16:02:50.420Z,1015.79
2018-03-27T16:04:17.603Z,1015.78
2018-03-27T16:05:44.898Z,1015.77
2018-03-27T16:07:11.984Z,1015.77
2018-03-27T16:08:39.254Z,1015.75
2018-03-27T16:10:06.702Z,1015.74
2018-03-27T16:11:34.036Z,1015.77
2018-03-27T16:13:01.229Z,1015.76
2018-03-27T16:14:28.590Z,1015.78
2018-03-27T16:15:55.961Z,1015.78
2018-03-27T16:17:23.045Z,1015.78
2018-03-27T16:18:50.390Z,1015.74
2018-03-27T16:20:17.597Z,1015.74
2018-03-27T16:21:44.791Z,1015.74
2018-03-27T16:23:11.918Z,1015.75
2018-03-27T16:24:39.181Z,1015.74
2018-03-27T16:26:06.757Z,1015.75
2018-03-27T16:27:33.920Z,1015.71
2018-03-27T16:29:01.223Z,1015.71
2018-03-27T16:30:28.524Z,1015.68
2018-03-27T16:31:55.765Z,1015.65
2018-03-27T16:33:23.060Z,1015.64
2018-03-27T16:34:50.255Z,1015.63
2018-03-27T16:36:17.751Z,1015.64
2018-03-27T16:37:44.918Z,1015.63
2018-03-27T16:39:11.856Z,1015.63
2018-03-27T16:40:39.081Z,1015.64
2018-03-27T16:42:06.459Z,1015.65
2018-03-27T16:43:33.983Z,1015.63
2018-03-27T16:45:01.331Z,1015.65
2018-03-27T16:46:28.621Z,1015.65
2018-03-27T16:47:55.957Z,1015.66
2018-03-27T16:49:23.374Z,1015.67
2018-03-27T16:50:50.509Z,1015.63
2018-03-27T16:52:17.797Z,1015.65
2018-03-27T16:53:45.076Z,1015.62
2018-03-27T16:55:12.358Z,1015.63
2018-03-27T16:56:39.585Z,1015.63
2018-03-27T16:58:06.938Z,1015.61
2018-03-27T16:59:34.195Z,1015.60
2018-03-27T17:01:01.507Z,1015.59
2018-03-27T17:02:28.801Z,1015.59
2018-03-27T17:03:55.986Z,1015.57
2018-03-27T17:05:23.291Z,1015.57
2018-03-27T17:06:50.495Z,1015.57
2018-03-27T17:08:17.731Z,1015.56
2018-03-27T17:09:44.952Z,1015.57
2018-03-27T17:11:12.175Z,1015.57
2018-03-27T17:12:39.423Z,1015.59
2018-03-27T17:14:06.920Z,1015.60
2018-03-27T17:15:34.102Z,1015.60
2018-03-27T17:17:01.473Z,1015.62
2018-03-27T17:18:28.821Z,1015.65
2018-03-27T17:19:56.219Z,1015.63
2018-03-27T17:21:23.483Z,1015.62
2018-03-27T17:22:50.828Z,1015.62
2018-03-27T17:24:18.138Z,1015.63
2018-03-27T17:25:45.431Z,1015.62
2018-03-27T17:27:12.677Z,1015.60
2018-03-27T17:28:40.082Z,1015.62
2018-03-27T17:30:07.522Z,1015.60
2018-03-27T17:31:34.774Z,1015.59
2018-03-27T17:33:02.011Z,1015.58
2018-03-27T17:34:29.347Z,1015.58